Time;durP1;ratioP1;P1;durP2;ratioP2;P2;SDS_P1;SDS_P2;PMS_P1;PMS_P2;Temp;Humidity;BMP_temperature;BMP_pressure;BME280_temperature;BME280_humidity;BME280_pressure;Samples;Min_cycle;Max_cycle;Signal;HPM_P1;HPM_P2
2021/10/02 00:34:10;;;;;;;7.77;6.53;;;14.00;99.90;;;;;;5060268;28;20261;-49
2021/10/02 00:44:43;;;;;;;8.50;7.17;;;13.90;99.90;;;;;;5060023;28;20203;-49
2021/10/02 00:47:12;;;;;;;11.27;7.80;;;14.00;99.90;;;;;;5062030;28;20209;-48
2021/10/02 00:49:41;;;;;;;11.23;7.83;;;14.10;99.90;;;;;;5035461;28;20244;-49
2021/10/02 00:52:11;;;;;;;10.10;7.73;;;14.10;99.90;;;;;;5059532;28;20304;-49
2021/10/02 00:54:40;;;;;;;10.43;7.87;;;14.20;99.90;;;;;;5061722;28;20203;-49
2021/10/02 00:57:07;;;;;;;11.97;7.67;;;14.10;99.90;;;;;;5060332;28;20294;-49
2021/10/02 00:59:34;;;;;;;11.33;8.33;;;14.10;99.90;;;;;;5060661;28;20223;-49
2021/10/02 01:02:14;;;;;;;11.23;8.57;;;14.10;99.90;;;;;;5059055;28;20199;-49
2021/10/02 01:04:55;;;;;;;12.00;8.40;;;14.10;99.90;;;;;;5060798;28;20291;-49
2021/10/02 01:07:25;;;;;;;9.93;7.53;;;14.20;99.90;;;;;;5060499;28;20239;-49
2021/10/02 01:10:25;;;;;;;12.83;8.10;;;14.20;99.90;;;;;;5054882;28;20273;-49
2021/10/02 01:13:17;;;;;;;11.20;8.33;;;14.20;99.90;;;;;;5039235;28;20650;-49
2021/10/02 01:15:59;;;;;;;11.13;8.20;;;14.20;99.90;;;;;;5063612;28;20689;-49
2021/10/02 01:18:54;;;;;;;14.23;8.17;;;14.10;99.90;;;;;;5062859;28;20592;-49
2021/10/02 01:21:30;;;;;;;9.80;8.13;;;14.10;99.90;;;;;;5059456;28;20342;-49
2021/10/02 01:24:24;;;;;;;10.80;7.87;;;14.10;99.90;;;;;;5060155;28;20298;-49
2021/10/02 01:27:10;;;;;;;8.33;7.13;;;14.20;99.90;;;;;;5060796;28;20727;-49
2021/10/02 01:29:40;;;;;;;11.80;7.70;;;14.10;99.90;;;;;;5061648;28;20683;-48
2021/10/02 01:32:16;;;;;;;11.77;8.07;;;14.00;99.90;;;;;;5057250;28;20766;-48
2021/10/02 01:37:50;;;;;;;11.37;7.80;;;14.00;99.90;;;;;;5061023;28;20239;-49
2021/10/02 01:48:40;;;;;;;11.50;8.03;;;14.00;99.90;;;;;;5062807;28;20686;-49
2021/10/02 01:51:11;;;;;;;8.63;7.43;;;14.00;99.90;;;;;;5062021;28;20254;-49
2021/10/02 01:53:39;;;;;;;14.47;7.50;;;14.00;99.90;;;;;;5041654;28;20286;-49
2021/10/02 01:56:09;;;;;;;10.77;7.60;;;14.00;99.90;;;;;;5059500;28;20254;-49
2021/10/02 01:58:36;;;;;;;12.93;8.13;;;14.10;99.90;;;;;;5060033;28;20191;-49
2021/10/02 02:01:05;;;;;;;12.97;8.73;;;14.00;99.90;;;;;;5058929;28;20219;-49
2021/10/02 02:03:38;;;;;;;10.07;7.97;;;14.00;99.90;;;;;;5061527;28;20242;-49
2021/10/02 02:06:06;;;;;;;10.73;8.53;;;14.00;99.90;;;;;;5056819;28;20346;-48
2021/10/02 02:08:34;;;;;;;10.93;8.63;;;14.00;99.90;;;;;;5064512;28;20233;-49
2021/10/02 02:11:23;;;;;;;12.93;10.00;;;14.00;99.90;;;;;;5058242;28;20684;-49
2021/10/02 02:13:51;;;;;;;13.20;9.17;;;14.00;99.90;;;;;;5038492;28;20312;-49
2021/10/02 02:16:18;;;;;;;13.93;8.63;;;14.00;99.90;;;;;;5040659;28;20288;-48
2021/10/02 02:18:47;;;;;;;18.10;9.47;;;14.00;99.90;;;;;;5058299;28;20599;-49
2021/10/02 02:21:15;;;;;;;10.57;8.83;;;14.10;99.90;;;;;;5036781;28;20562;-48
2021/10/02 02:23:42;;;;;;;15.20;8.57;;;14.10;99.90;;;;;;5041077;28;20237;-49
2021/10/02 02:26:09;;;;;;;13.00;9.13;;;14.00;99.90;;;;;;5036086;28;20306;-49
2021/10/02 02:28:39;;;;;;;13.03;8.67;;;14.00;99.90;;;;;;5041490;28;20269;-49
2021/10/02 02:31:07;;;;;;;12.57;8.87;;;14.00;99.90;;;;;;5022760;28;20328;-49
2021/10/02 02:33:36;;;;;;;16.73;9.80;;;14.00;99.90;;;;;;5036727;28;20208;-48
2021/10/02 02:36:05;;;;;;;11.90;8.73;;;14.00;99.90;;;;;;5041567;28;20308;-49
2021/10/02 02:38:32;;;;;;;11.70;9.07;;;14.00;99.90;;;;;;5044425;28;20227;-49
2021/10/02 02:40:59;;;;;;;17.20;10.17;;;14.00;99.90;;;;;;5042162;28;20295;-49
2021/10/02 02:43:32;;;;;;;14.77;9.40;;;13.90;99.90;;;;;;5042991;28;20224;-49
2021/10/02 02:46:22;;;;;;;15.30;9.20;;;14.00;99.90;;;;;;5042682;28;20203;-49
2021/10/02 02:49:08;;;;;;;12.60;8.43;;;14.10;99.90;;;;;;5028388;28;20207;-49
2021/10/02 02:51:59;;;;;;;11.90;9.43;;;14.00;99.90;;;;;;5041194;28;20605;-49
2021/10/02 02:54:37;;;;;;;11.13;8.87;;;14.10;99.90;;;;;;5047886;28;20390;-49
2021/10/02 02:57:19;;;;;;;15.20;8.90;;;14.10;99.90;;;;;;5044750;28;20285;-49
2021/10/02 03:00:04;;;;;;;12.10;9.63;;;14.10;99.90;;;;;;5037932;28;20655;-49
2021/10/02 03:02:33;;;;;;;16.97;9.37;;;14.10;99.90;;;;;;5044121;28;20680;-49
2021/10/02 03:05:04;;;;;;;14.87;10.50;;;14.10;99.90;;;;;;5044580;28;20220;-49
2021/10/02 03:07:32;;;;;;;16.80;11.33;;;14.10;99.90;;;;;;5044016;28;20236;-49
2021/10/02 03:10:01;;;;;;;17.47;12.10;;;14.00;99.90;;;;;;5042990;28;20295;-49
2021/10/02 03:12:33;;;;;;;18.87;13.00;;;14.00;99.90;;;;;;5041147;28;20362;-49
2021/10/02 03:15:02;;;;;;;21.30;12.10;;;14.00;99.90;;;;;;5057466;28;20327;-49
2021/10/02 03:17:30;;;;;;;15.87;11.80;;;13.90;99.90;;;;;;5060793;28;20551;-49
2021/10/02 03:19:59;;;;;;;17.10;13.47;;;14.00;99.90;;;;;;5066446;28;20288;-49
2021/10/02 03:22:28;;;;;;;21.83;13.90;;;14.00;99.90;;;;;;5060896;28;20234;-49
2021/10/02 03:24:57;;;;;;;18.73;12.60;;;14.00;99.90;;;;;;5058618;28;20233;-49
2021/10/02 03:27:28;;;;;;;17.50;13.17;;;13.90;99.90;;;;;;5062200;28;20319;-49
2021/10/02 03:29:56;;;;;;;19.87;13.07;;;13.90;99.90;;;;;;5067127;28;20232;-49
2021/10/02 03:32:25;;;;;;;19.50;12.37;;;13.80;99.90;;;;;;5064389;28;20613;-48
2021/10/02 03:34:52;;;;;;;20.10;13.17;;;13.70;99.90;;;;;;5065445;28;20238;-49
2021/10/02 03:37:20;;;;;;;17.03;12.10;;;13.70;99.90;;;;;;5062904;28;20314;-48
2021/10/02 03:39:47;;;;;;;17.70;11.47;;;13.70;99.90;;;;;;5064388;28;20592;-48
2021/10/02 03:42:16;;;;;;;14.23;10.93;;;13.60;99.90;;;;;;5061808;28;20275;-48
2021/10/02 03:44:45;;;;;;;18.67;11.43;;;13.60;99.90;;;;;;5063232;28;20229;-48
2021/10/02 03:47:14;;;;;;;16.83;11.33;;;13.60;99.90;;;;;;5062697;28;20206;-48
2021/10/02 03:49:42;;;;;;;16.67;10.93;;;13.60;99.90;;;;;;5058988;28;20209;-49
2021/10/02 03:52:11;;;;;;;17.30;11.47;;;13.70;99.90;;;;;;5075743;28;20206;-49
2021/10/02 03:54:38;;;;;;;18.43;11.00;;;13.60;99.90;;;;;;5062251;28;20258;-49
2021/10/02 03:57:05;;;;;;;14.90;10.60;;;13.70;99.90;;;;;;5060178;28;20354;-49
2021/10/02 03:59:32;;;;;;;14.77;10.20;;;13.60;99.90;;;;;;5061193;28;20247;-49
2021/10/02 04:01:59;;;;;;;18.60;10.13;;;13.60;99.90;;;;;;5057460;28;20454;-49
2021/10/02 04:04:26;;;;;;;17.10;11.30;;;13.60;99.90;;;;;;5056970;28;20209;-49
2021/10/02 04:06:53;;;;;;;16.10;11.73;;;13.60;99.90;;;;;;5062648;28;20365;-49
2021/10/02 04:09:20;;;;;;;13.90;11.20;;;13.60;99.90;;;;;;5063886;28;20205;-49
2021/10/02 04:11:47;;;;;;;18.27;12.13;;;13.50;99.90;;;;;;5061700;28;20246;-49
2021/10/02 04:14:14;;;;;;;18.30;12.27;;;13.50;99.90;;;;;;5045044;28;20286;-49
2021/10/02 04:16:41;;;;;;;23.33;12.73;;;13.70;99.90;;;;;;5062337;28;20214;-49
2021/10/02 04:19:08;;;;;;;18.47;13.03;;;13.60;99.90;;;;;;5063263;28;20195;-49
2021/10/02 04:21:35;;;;;;;17.77;12.27;;;13.60;99.90;;;;;;5060854;28;20366;-49
2021/10/02 04:24:02;;;;;;;19.10;12.37;;;13.60;99.90;;;;;;5059617;28;20650;-50
2021/10/02 04:26:29;;;;;;;15.87;12.87;;;13.60;99.90;;;;;;5060943;28;20310;-49
2021/10/02 04:28:56;;;;;;;16.50;11.30;;;13.60;99.90;;;;;;5076434;28;20237;-49
2021/10/02 04:31:23;;;;;;;18.33;12.13;;;13.70;99.90;;;;;;5062177;28;20307;-49
2021/10/02 04:33:50;;;;;;;26.97;12.53;;;13.70;99.90;;;;;;5063805;28;20198;-49
2021/10/02 04:36:17;;;;;;;14.10;11.00;;;13.60;99.90;;;;;;5061105;28;20258;-49
2021/10/02 04:38:44;;;;;;;16.47;11.20;;;13.50;99.90;;;;;;5030736;28;20230;-49
2021/10/02 04:41:11;;;;;;;15.17;10.80;;;13.60;99.90;;;;;;5056742;28;20199;-49
2021/10/02 04:43:41;;;;;;;16.53;10.57;;;13.70;99.90;;;;;;5061042;28;20599;-49
2021/10/02 04:46:09;;;;;;;14.23;9.90;;;13.60;99.90;;;;;;5046400;28;20267;-49
2021/10/02 04:48:37;;;;;;;12.90;10.77;;;13.80;99.90;;;;;;5057338;28;20194;-48
2021/10/02 04:51:05;;;;;;;13.87;9.80;;;13.80;99.90;;;;;;5060106;28;20230;-49
2021/10/02 04:53:33;;;;;;;16.67;11.20;;;13.60;99.90;;;;;;5062968;28;20713;-49
2021/10/02 04:56:00;;;;;;;14.43;10.83;;;13.60;99.90;;;;;;5063412;28;20198;-49
2021/10/02 04:58:28;;;;;;;15.87;10.90;;;13.60;99.90;;;;;;5079924;28;20199;-49
2021/10/02 05:00:55;;;;;;;17.37;10.97;;;13.70;99.90;;;;;;5063435;28;20226;-49
2021/10/02 05:03:22;;;;;;;17.07;11.03;;;13.70;99.90;;;;;;5055530;28;20298;-49
2021/10/02 05:05:49;;;;;;;15.67;11.80;;;13.70;99.90;;;;;;5062616;28;20189;-49
2021/10/02 05:08:17;;;;;;;16.37;10.07;;;13.70;99.90;;;;;;5061415;28;20555;-48
2021/10/02 05:10:44;;;;;;;14.33;10.13;;;13.70;99.90;;;;;;5064074;28;20380;-48
2021/10/02 05:13:11;;;;;;;16.27;10.23;;;13.70;99.90;;;;;;5060525;28;20225;-48
2021/10/02 05:15:40;;;;;;;14.83;11.03;;;13.60;99.90;;;;;;5079565;28;20566;-48
2021/10/02 05:18:08;;;;;;;14.63;10.57;;;13.60;99.90;;;;;;5060537;28;20245;-49
2021/10/02 05:20:35;;;;;;;14.27;10.63;;;13.70;99.90;;;;;;5038069;28;20378;-49
2021/10/02 05:23:02;;;;;;;16.40;10.57;;;13.80;99.90;;;;;;5056166;28;20224;-49
2021/10/02 05:25:29;;;;;;;13.87;11.00;;;13.70;99.90;;;;;;5058309;28;20236;-49
2021/10/02 05:27:59;;;;;;;16.70;10.30;;;13.60;99.90;;;;;;5058217;28;20206;-49
2021/10/02 05:30:26;;;;;;;13.63;10.37;;;13.50;99.90;;;;;;5060541;28;20285;-49
2021/10/02 05:32:53;;;;;;;14.93;9.57;;;13.60;99.90;;;;;;5063266;28;20212;-49
2021/10/02 05:35:21;;;;;;;15.00;9.83;;;13.60;99.90;;;;;;5058854;28;20301;-49
2021/10/02 05:37:48;;;;;;;14.70;10.63;;;13.60;99.90;;;;;;5061929;28;20770;-49
2021/10/02 05:40:16;;;;;;;14.00;10.33;;;13.60;99.90;;;;;;5058386;28;20202;-49
2021/10/02 05:42:43;;;;;;;15.63;10.77;;;13.40;99.90;;;;;;5060991;28;20257;-49
2021/10/02 05:45:10;;;;;;;14.47;10.33;;;13.30;99.90;;;;;;5060462;28;20310;-48
2021/10/02 05:47:37;;;;;;;12.80;10.03;;;13.50;99.90;;;;;;5061772;28;20633;-51
2021/10/02 05:50:05;;;;;;;12.10;9.60;;;13.40;99.90;;;;;;5060502;28;20339;-48
2021/10/02 05:52:32;;;;;;;13.37;9.47;;;13.30;99.90;;;;;;5060285;28;20741;-48
2021/10/02 05:54:59;;;;;;;13.53;9.63;;;13.40;99.90;;;;;;5058406;28;20298;-48
2021/10/02 05:57:26;;;;;;;14.83;9.53;;;13.50;99.90;;;;;;5038105;28;20296;-48
2021/10/02 05:59:56;;;;;;;13.97;8.77;;;13.50;99.90;;;;;;5042292;28;20288;-48
2021/10/02 06:02:23;;;;;;;13.20;9.70;;;13.30;99.90;;;;;;5056004;28;20244;-48
2021/10/02 06:04:50;;;;;;;13.07;9.33;;;13.40;99.90;;;;;;5060453;28;20540;-48
2021/10/02 06:07:17;;;;;;;12.33;8.93;;;13.30;99.90;;;;;;5063649;28;20285;-49
2021/10/02 06:09:43;;;;;;;10.83;8.90;;;13.10;99.90;;;;;;5079499;28;20231;-49
2021/10/02 06:12:10;;;;;;;15.50;10.37;;;13.00;99.90;;;;;;5062897;28;20281;-48
2021/10/02 06:14:37;;;;;;;15.93;10.83;;;13.10;99.90;;;;;;5065068;28;20255;-49
2021/10/02 06:17:04;;;;;;;14.43;9.80;;;13.00;99.90;;;;;;5067456;28;20238;-49
2021/10/02 06:19:30;;;;;;;14.53;9.57;;;13.10;99.90;;;;;;5066793;28;20193;-49
2021/10/02 06:21:59;;;;;;;15.47;10.53;;;13.10;99.90;;;;;;5062274;28;20707;-49
2021/10/02 06:24:26;;;;;;;15.37;9.80;;;13.00;99.90;;;;;;5066666;28;20272;-48
2021/10/02 06:26:53;;;;;;;17.23;10.43;;;13.00;99.90;;;;;;5062558;28;20668;-49
2021/10/02 06:29:19;;;;;;;13.93;10.67;;;13.00;99.90;;;;;;5068427;28;20241;-49
2021/10/02 06:31:46;;;;;;;17.10;10.03;;;12.90;99.90;;;;;;5062566;28;20402;-49
2021/10/02 06:34:14;;;;;;;16.87;10.10;;;12.90;99.90;;;;;;5064962;28;20204;-49
2021/10/02 06:36:44;;;;;;;13.53;10.00;;;12.90;99.90;;;;;;5061110;28;20309;-49
2021/10/02 06:39:12;;;;;;;16.73;10.00;;;13.00;99.90;;;;;;5064662;28;20197;-49
2021/10/02 06:41:38;;;;;;;19.90;10.13;;;13.00;99.90;;;;;;5062434;28;20822;-49
2021/10/02 06:44:08;;;;;;;16.23;9.83;;;13.00;99.90;;;;;;5060945;28;20353;-49
2021/10/02 06:46:35;;;;;;;16.67;9.80;;;13.10;99.90;;;;;;5059591;28;20281;-49
2021/10/02 06:49:01;;;;;;;11.60;8.97;;;13.10;99.90;;;;;;5060473;28;20216;-49
2021/10/02 06:51:28;;;;;;;18.37;10.47;;;13.20;99.90;;;;;;5062896;28;20660;-49
2021/10/02 06:53:55;;;;;;;13.80;9.77;;;13.30;99.90;;;;;;5063334;28;20320;-49
2021/10/02 06:56:22;;;;;;;14.47;9.97;;;13.20;99.90;;;;;;5063334;28;20673;-49
2021/10/02 06:58:49;;;;;;;16.90;10.20;;;13.30;99.90;;;;;;5064223;28;20250;-49
2021/10/02 07:01:16;;;;;;;17.00;10.27;;;13.30;99.90;;;;;;5066467;28;20296;-49
2021/10/02 07:03:43;;;;;;;13.37;10.20;;;13.40;99.90;;;;;;5061075;28;20219;-49
2021/10/02 07:06:10;;;;;;;13.07;9.53;;;13.30;99.90;;;;;;5064204;28;20298;-49
2021/10/02 07:08:36;;;;;;;11.53;9.00;;;13.30;99.90;;;;;;5062821;28;20613;-50
2021/10/02 07:11:04;;;;;;;17.13;10.00;;;13.20;99.90;;;;;;5038775;28;20264;-49
2021/10/02 07:13:31;;;;;;;19.00;10.37;;;13.20;99.90;;;;;;5063499;28;20603;-50
2021/10/02 07:15:57;;;;;;;15.90;9.57;;;13.10;99.90;;;;;;5068323;28;20291;-49
2021/10/02 07:18:24;;;;;;;13.00;9.43;;;13.30;99.90;;;;;;5068146;28;20299;-49
2021/10/02 07:20:51;;;;;;;16.00;9.93;;;13.30;99.90;;;;;;5067933;28;20230;-49
2021/10/02 07:23:20;;;;;;;12.13;9.70;;;13.30;99.90;;;;;;5064367;28;20195;-49
2021/10/02 07:25:47;;;;;;;12.97;9.70;;;13.30;99.90;;;;;;5063111;28;20238;-50
2021/10/02 07:28:15;;;;;;;15.13;9.87;;;13.40;99.90;;;;;;5066878;28;20617;-49
2021/10/02 07:30:41;;;;;;;14.90;10.03;;;13.50;99.90;;;;;;5050666;28;20230;-49
2021/10/02 07:33:08;;;;;;;13.77;9.83;;;13.50;99.90;;;;;;5063512;28;20273;-50
2021/10/02 07:35:35;;;;;;;13.53;9.37;;;13.40;99.90;;;;;;5063507;28;20249;-49
2021/10/02 07:38:03;;;;;;;13.10;9.30;;;13.50;99.90;;;;;;5062718;28;20255;-49
2021/10/02 07:40:30;;;;;;;15.20;9.40;;;13.50;99.90;;;;;;5064200;28;20199;-50
2021/10/02 07:43:00;;;;;;;13.53;10.03;;;13.50;99.90;;;;;;5061200;28;20231;-49
2021/10/02 07:45:27;;;;;;;15.80;9.40;;;13.50;99.90;;;;;;5064267;28;20225;-50
2021/10/02 07:47:55;;;;;;;13.30;8.90;;;13.50;99.90;;;;;;5063586;28;20529;-49
2021/10/02 07:50:24;;;;;;;17.63;9.67;;;13.50;99.90;;;;;;5064527;28;20612;-49
2021/10/02 07:52:55;;;;;;;16.67;10.10;;;13.50;99.90;;;;;;5063452;28;20238;-50
2021/10/02 07:55:24;;;;;;;15.03;10.23;;;13.50;99.90;;;;;;5040180;28;20275;-49
2021/10/02 07:57:51;;;;;;;13.07;9.43;;;13.50;99.90;;;;;;5062194;28;20242;-49
2021/10/02 08:00:20;;;;;;;14.70;8.40;;;13.60;99.90;;;;;;5063962;28;20728;-49
2021/10/02 08:02:50;;;;;;;16.77;8.90;;;13.70;99.90;;;;;;5058643;28;20277;-49
2021/10/02 08:05:18;;;;;;;16.60;7.87;;;13.70;99.90;;;;;;5056372;28;20698;-49
2021/10/02 08:07:47;;;;;;;11.77;7.83;;;13.90;99.90;;;;;;5062053;28;20248;-48
2021/10/02 08:10:17;;;;;;;11.63;7.50;;;13.80;99.90;;;;;;5051582;28;20292;-49
2021/10/02 08:12:44;;;;;;;12.20;8.40;;;13.80;99.90;;;;;;5052116;28;20294;-50
2021/10/02 08:15:12;;;;;;;13.03;8.83;;;13.80;99.90;;;;;;5059925;28;20246;-49
2021/10/02 08:17:41;;;;;;;12.43;7.60;;;13.90;99.90;;;;;;5063750;28;20711;-51
2021/10/02 08:20:19;;;;;;;12.50;8.03;;;14.00;99.90;;;;;;5058901;28;20199;-51
2021/10/02 08:22:50;;;;;;;13.20;8.83;;;14.10;99.90;;;;;;5059383;28;20223;-49
2021/10/02 08:25:18;;;;;;;13.87;8.53;;;14.10;99.90;;;;;;5055120;28;20269;-49
2021/10/02 08:27:47;;;;;;;9.53;6.53;;;14.10;99.90;;;;;;5056637;28;20202;-49
2021/10/02 08:30:16;;;;;;;13.37;7.73;;;14.10;99.90;;;;;;5060298;28;20286;-51
2021/10/02 08:32:43;;;;;;;11.47;7.60;;;14.00;99.90;;;;;;5050841;28;20416;-49
2021/10/02 08:35:11;;;;;;;13.33;8.03;;;14.10;99.90;;;;;;5060413;28;20279;-50
2021/10/02 08:37:38;;;;;;;13.70;9.20;;;14.10;99.90;;;;;;5052081;28;20243;-49
2021/10/02 08:40:08;;;;;;;10.90;8.37;;;14.10;99.90;;;;;;5056762;28;20199;-51
2021/10/02 08:42:40;;;;;;;14.10;9.00;;;14.20;99.90;;;;;;5060416;28;20200;-48
2021/10/02 08:45:09;;;;;;;14.97;8.60;;;14.20;99.90;;;;;;5039317;28;20234;-50
2021/10/02 08:47:38;;;;;;;11.70;7.43;;;14.20;99.90;;;;;;5053689;28;20267;-49
2021/10/02 08:50:07;;;;;;;15.77;9.20;;;14.20;99.90;;;;;;5053542;28;20305;-49
2021/10/02 08:52:35;;;;;;;11.20;7.50;;;14.20;99.90;;;;;;5052941;28;20298;-49
2021/10/02 08:55:04;;;;;;;8.73;7.80;;;14.30;99.90;;;;;;5056277;28;20812;-51
2021/10/02 08:57:33;;;;;;;11.67;7.67;;;14.30;99.90;;;;;;5055507;28;20254;-51
2021/10/02 09:00:04;;;;;;;11.07;7.37;;;14.30;99.90;;;;;;5059144;28;20236;-49
2021/10/02 09:02:31;;;;;;;10.30;7.70;;;14.30;99.90;;;;;;5057282;28;20304;-49
2021/10/02 09:04:59;;;;;;;12.30;8.07;;;14.50;99.90;;;;;;5070688;28;20199;-50
2021/10/02 09:07:26;;;;;;;10.43;7.40;;;14.70;99.90;;;;;;5059251;28;20275;-51
2021/10/02 09:09:56;;;;;;;12.37;7.57;;;14.60;99.90;;;;;;5060391;28;20203;-51
2021/10/02 09:12:23;;;;;;;15.53;6.90;;;14.80;99.90;;;;;;5061592;28;20234;-51
2021/10/02 09:14:52;;;;;;;8.37;5.93;;;14.90;99.90;;;;;;5061911;28;20262;-49
2021/10/02 09:17:20;;;;;;;11.80;6.80;;;14.90;99.90;;;;;;5056876;28;20376;-49
2021/10/02 09:19:48;;;;;;;13.73;6.70;;;14.80;99.90;;;;;;5058461;28;20200;-49
2021/10/02 09:22:18;;;;;;;11.83;6.20;;;14.90;99.90;;;;;;5060955;28;20671;-49
2021/10/02 09:24:46;;;;;;;10.47;6.63;;;15.00;99.90;;;;;;5039513;28;20708;-51
2021/10/02 09:27:20;;;;;;;10.30;6.53;;;15.00;99.90;;;;;;5064327;28;20204;-49
2021/10/02 09:29:59;;;;;;;9.77;6.73;;;15.10;99.90;;;;;;5058785;28;20207;-49
2021/10/02 09:32:37;;;;;;;10.60;7.00;;;15.20;99.90;;;;;;5057633;28;20238;-49
2021/10/02 09:35:08;;;;;;;8.47;5.97;;;15.20;99.90;;;;;;5055345;28;20702;-50
2021/10/02 09:37:41;;;;;;;8.23;6.13;;;15.40;99.90;;;;;;5057638;28;20241;-49
2021/10/02 09:40:20;;;;;;;9.23;6.23;;;15.30;99.90;;;;;;5053951;28;20427;-49
2021/10/02 09:42:49;;;;;;;7.90;5.90;;;15.10;99.90;;;;;;5057812;28;20230;-50
2021/10/02 09:45:19;;;;;;;7.60;6.30;;;15.10;99.90;;;;;;5060761;28;20520;-49
2021/10/02 09:47:52;;;;;;;8.93;6.67;;;15.30;99.90;;;;;;5060607;28;20219;-48
2021/10/02 09:50:21;;;;;;;11.97;6.67;;;15.50;99.90;;;;;;5055665;28;20226;-48
2021/10/02 09:52:56;;;;;;;11.60;5.40;;;15.50;99.90;;;;;;5061664;28;20205;-49
2021/10/02 09:55:45;;;;;;;11.27;5.70;;;15.40;99.90;;;;;;5052832;28;20203;-50
2021/10/02 09:58:17;;;;;;;8.30;5.27;;;15.40;99.90;;;;;;5055874;28;20215;-50
2021/10/02 10:00:46;;;;;;;7.97;5.10;;;15.60;99.90;;;;;;5056399;28;20191;-50
2021/10/02 10:03:18;;;;;;;9.40;5.47;;;15.50;99.90;;;;;;5059144;28;20295;-50
2021/10/02 10:05:53;;;;;;;8.30;5.67;;;15.60;99.90;;;;;;5056014;28;20196;-50
2021/10/02 10:08:29;;;;;;;11.93;5.43;;;15.70;99.90;;;;;;5059942;28;20286;-49
2021/10/02 10:11:08;;;;;;;8.87;4.63;;;15.70;99.90;;;;;;5053109;28;20203;-49
2021/10/02 10:13:35;;;;;;;6.23;4.13;;;15.70;99.90;;;;;;5054317;28;20340;-48
2021/10/02 10:16:05;;;;;;;8.50;3.33;;;15.70;99.90;;;;;;5054892;28;20230;-48
2021/10/02 10:18:34;;;;;;;6.90;3.53;;;15.80;99.90;;;;;;5062625;28;20311;-49
2021/10/02 10:21:07;;;;;;;6.07;3.83;;;15.80;99.90;;;;;;5060346;28;20232;-50
2021/10/02 10:23:38;;;;;;;5.73;3.90;;;15.70;99.90;;;;;;5054947;28;20329;-50
2021/10/02 10:26:17;;;;;;;4.47;3.23;;;15.50;99.90;;;;;;5057660;28;20206;-50
2021/10/02 10:28:47;;;;;;;4.50;2.70;;;15.60;99.90;;;;;;5062165;28;20233;-50
2021/10/02 10:31:25;;;;;;;6.00;3.23;;;15.80;99.90;;;;;;5056635;28;20200;-50
2021/10/02 10:33:57;;;;;;;3.33;2.33;;;15.90;99.90;;;;;;5049216;28;20201;-50
2021/10/02 10:36:27;;;;;;;3.17;2.60;;;15.80;99.90;;;;;;5041981;28;20534;-50
2021/10/02 10:38:54;;;;;;;3.20;2.67;;;16.00;99.90;;;;;;5068802;28;20244;-50
2021/10/02 10:41:23;;;;;;;4.57;2.43;;;16.10;99.90;;;;;;5052402;28;20615;-51
2021/10/02 10:43:51;;;;;;;3.23;2.60;;;16.10;99.90;;;;;;5053055;28;20224;-50
2021/10/02 10:46:22;;;;;;;4.00;2.47;;;15.90;99.90;;;;;;5030188;28;20240;-50
2021/10/02 10:48:49;;;;;;;4.83;2.80;;;15.90;99.90;;;;;;5061589;28;20588;-50
2021/10/02 10:51:19;;;;;;;5.03;2.47;;;15.90;99.90;;;;;;5030182;28;20219;-50
2021/10/02 10:53:49;;;;;;;8.57;2.90;;;15.90;99.90;;;;;;5050876;28;20224;-50
2021/10/02 10:56:40;;;;;;;3.17;2.40;;;15.90;99.90;;;;;;5051245;28;20371;-51
2021/10/02 10:59:07;;;;;;;3.50;2.30;;;15.90;99.90;;;;;;5064357;28;20513;-50
2021/10/02 11:01:39;;;;;;;3.70;2.00;;;16.00;99.90;;;;;;5062452;28;20254;-50
2021/10/02 11:04:27;;;;;;;3.23;1.87;;;16.10;99.90;;;;;;5046101;28;20202;-50
2021/10/02 11:06:59;;;;;;;2.17;1.97;;;16.00;99.90;;;;;;5047645;28;20733;-51
2021/10/02 11:09:39;;;;;;;4.90;2.07;;;16.10;99.90;;;;;;5049338;28;20291;-51
2021/10/02 11:12:11;;;;;;;2.03;1.40;;;16.20;99.90;;;;;;5059466;28;20193;-51
2021/10/02 11:14:47;;;;;;;3.23;1.83;;;16.20;99.90;;;;;;5059259;28;20575;-51
2021/10/02 11:17:32;;;;;;;2.97;1.47;;;16.20;99.90;;;;;;5064367;28;20297;-51
2021/10/02 11:20:17;;;;;;;1.97;1.40;;;16.10;99.90;;;;;;5063527;28;20260;-51
2021/10/02 11:23:22;;;;;;;3.40;1.60;;;16.10;99.90;;;;;;5063133;28;20685;-51
2021/10/02 11:26:11;;;;;;;3.73;1.53;;;16.10;99.90;;;;;;5066974;28;20231;-51
2021/10/02 11:28:39;;;;;;;2.23;1.30;;;16.00;99.90;;;;;;5079462;28;20616;-51
2021/10/02 11:31:15;;;;;;;2.33;1.60;;;16.10;99.90;;;;;;5072165;28;20364;-51
2021/10/02 11:33:46;;;;;;;2.60;1.40;;;16.00;99.90;;;;;;5068371;28;20231;-50
2021/10/02 11:36:31;;;;;;;1.80;1.13;;;16.20;99.90;;;;;;5069923;28;20349;-50
2021/10/02 11:39:18;;;;;;;2.57;1.00;;;16.40;99.90;;;;;;5078410;28;20215;-51
2021/10/02 11:41:57;;;;;;;2.97;1.17;;;16.50;99.90;;;;;;5052133;28;20308;-51
2021/10/02 11:44:33;;;;;;;1.20;1.10;;;16.60;99.90;;;;;;5058766;28;20205;-50
2021/10/02 11:47:37;;;;;;;6.63;1.30;;;16.80;99.90;;;;;;5066343;28;20219;-51
2021/10/02 11:50:07;;;;;;;1.67;1.10;;;16.90;99.90;;;;;;5068844;28;20199;-51
2021/10/02 11:52:57;;;;;;;2.50;1.30;;;16.90;99.90;;;;;;5075843;28;20703;-51
2021/10/02 11:55:33;;;;;;;1.50;1.20;;;17.10;99.90;;;;;;5071153;28;20232;-51
2021/10/02 12:00:45;;;;;;;1.50;1.00;;;17.30;99.90;;;;;;5051399;28;20264;-51
2021/10/02 12:03:14;;;;;;;2.10;1.20;;;17.40;99.90;;;;;;5071589;28;20206;-51
2021/10/02 12:05:42;;;;;;;1.37;1.27;;;17.20;1.00;;;;;;5062666;28;20666;-50
2021/10/02 12:08:10;;;;;;;3.53;1.00;;;17.10;1.00;;;;;;5055376;28;20232;-51
2021/10/02 12:11:04;;;;;;;2.57;1.13;;;17.00;38.70;;;;;;5060799;28;20599;-50
2021/10/02 12:13:36;;;;;;;3.57;1.63;;;17.10;1.00;;;;;;5062884;28;20522;-51
2021/10/02 12:16:04;;;;;;;1.37;1.00;;;17.20;94.80;;;;;;5062821;28;20198;-51
2021/10/02 12:18:49;;;;;;;4.90;1.20;;;17.10;80.00;;;;;;5055578;28;20339;-51
2021/10/02 12:21:22;;;;;;;3.23;1.70;;;17.10;1.00;;;;;;5056564;28;20288;-51
2021/10/02 12:23:55;;;;;;;1.40;1.00;;;17.10;1.00;;;;;;5064583;28;20217;-51
2021/10/02 12:26:23;;;;;;;2.50;1.10;;;17.10;1.00;;;;;;5066731;28;20303;-51
2021/10/02 12:29:00;;;;;;;2.07;1.03;;;17.20;36.70;;;;;;5077998;28;20253;-51
2021/10/02 12:31:40;;;;;;;3.77;1.27;;;17.20;54.20;;;;;;5057941;28;20223;-50
2021/10/02 12:34:16;;;;;;;2.50;1.00;;;17.30;99.90;;;;;;5077117;28;20201;-51
2021/10/02 12:36:50;;;;;;;3.97;1.07;;;17.40;95.00;;;;;;5076830;28;20263;-51
2021/10/02 12:39:19;;;;;;;4.03;1.40;;;17.10;48.40;;;;;;5052784;28;20249;-57
2021/10/02 12:41:47;;;;;;;2.63;1.50;;;17.00;68.80;;;;;;5057467;28;20726;-51
2021/10/02 12:44:27;;;;;;;2.33;1.40;;;17.10;99.90;;;;;;5054999;28;20280;-51
2021/10/02 12:46:56;;;;;;;2.00;1.40;;;17.10;99.90;;;;;;5055608;28;20671;-51
2021/10/02 12:49:24;;;;;;;2.00;1.30;;;16.90;99.90;;;;;;5034969;28;20201;-51
2021/10/02 12:51:52;;;;;;;3.23;1.37;;;16.90;99.90;;;;;;5055989;28;20300;-50
2021/10/02 12:54:23;;;;;;;4.50;1.40;;;16.80;99.90;;;;;;5063426;28;20630;-50
2021/10/02 12:57:04;;;;;;;6.70;1.30;;;16.80;99.90;;;;;;5054482;28;20289;-50
2021/10/02 13:00:01;;;;;;;2.43;1.23;;;17.00;99.90;;;;;;5054977;28;20262;-50
2021/10/02 13:02:29;;;;;;;2.70;1.53;;;17.00;99.90;;;;;;5054512;28;20201;-50
2021/10/02 13:04:57;;;;;;;3.17;1.33;;;16.90;99.90;;;;;;5062384;28;20197;-50
2021/10/02 13:07:29;;;;;;;2.33;1.70;;;17.10;99.90;;;;;;5064149;28;20300;-50
2021/10/02 13:10:00;;;;;;;1.50;1.40;;;17.10;99.90;;;;;;5068191;28;20291;-50
2021/10/02 13:12:30;;;;;;;1.53;1.30;;;17.00;99.90;;;;;;5063199;28;21887;-50
2021/10/02 13:14:58;;;;;;;4.47;1.40;;;17.10;99.90;;;;;;5059320;28;20332;-50
2021/10/02 13:17:26;;;;;;;2.30;1.03;;;17.10;99.90;;;;;;5045863;28;20656;-50
2021/10/02 13:20:12;;;;;;;2.17;1.10;;;17.10;99.90;;;;;;5061917;28;20245;-50
2021/10/02 13:22:48;;;;;;;2.60;1.30;;;17.20;99.90;;;;;;5059169;28;20308;-50
2021/10/02 13:25:28;;;;;;;3.77;1.50;;;17.20;99.90;;;;;;5047553;28;20304;-49
2021/10/02 13:27:57;;;;;;;2.93;1.40;;;17.10;99.90;;;;;;5057477;28;20589;-50
2021/10/02 13:30:26;;;;;;;4.63;1.37;;;17.10;99.90;;;;;;5062116;28;20251;-50
2021/10/02 13:33:03;;;;;;;2.10;1.43;;;16.90;99.90;;;;;;5059086;28;20250;-50
2021/10/02 13:35:34;;;;;;;1.87;1.43;;;16.90;99.90;;;;;;5061795;28;20218;-50
2021/10/02 13:38:01;;;;;;;1.23;0.90;;;17.00;99.90;;;;;;5062104;28;20234;-50
2021/10/02 13:40:31;;;;;;;1.50;0.90;;;17.00;99.90;;;;;;5063708;28;20300;-50
2021/10/02 13:43:00;;;;;;;2.00;1.10;;;17.00;99.90;;;;;;5042746;28;20200;-50
2021/10/02 13:45:37;;;;;;;1.13;0.90;;;17.00;99.90;;;;;;5037695;28;20265;-50
2021/10/02 13:48:12;;;;;;;1.63;1.10;;;17.00;99.90;;;;;;5061069;28;20764;-50
2021/10/02 13:50:45;;;;;;;1.73;1.00;;;17.10;99.90;;;;;;5060125;28;20294;-50
2021/10/02 13:53:14;;;;;;;2.90;0.80;;;17.10;98.30;;;;;;5060522;28;20199;-50